createdAt,value
2018-12-15T00:02:04.768Z,77.90
2018-12-15T00:04:32.748Z,77.78
2018-12-15T00:07:00.677Z,78.17
2018-12-15T00:09:28.687Z,77.91
2018-12-15T00:11:56.627Z,78.00
2018-12-15T00:14:24.677Z,78.01
2018-12-15T00:16:52.644Z,77.52
2018-12-15T00:19:20.709Z,78.37
2018-12-15T00:21:48.763Z,77.19
2018-12-15T00:24:16.707Z,77.43
2018-12-15T00:26:47.883Z,77.33
2018-12-15T00:29:16.663Z,76.53
2018-12-15T00:31:44.625Z,77.61
2018-12-15T00:34:12.537Z,76.96
2018-12-15T00:36:43.817Z,77.20
2018-12-15T00:39:11.719Z,77.46
2018-12-15T00:41:39.822Z,77.56
2018-12-15T00:44:12.137Z,77.22
2018-12-15T00:46:40.204Z,77.27
2018-12-15T00:49:08.198Z,77.03
2018-12-15T00:51:36.197Z,77.89
2018-12-15T00:54:04.228Z,76.92
2018-12-15T00:56:32.245Z,76.95
2018-12-15T00:59:02.261Z,76.72
2018-12-15T01:01:30.238Z,77.00
2018-12-15T01:03:58.272Z,75.84
2018-12-15T01:06:26.302Z,76.24
2018-12-15T01:08:54.243Z,76.04
2018-12-15T01:11:22.358Z,75.96
2018-12-15T01:13:50.353Z,75.75
2018-12-15T01:16:18.388Z,76.80
2018-12-15T01:18:46.332Z,76.56
2018-12-15T01:21:14.423Z,76.61
2018-12-15T01:23:42.633Z,76.49
2018-12-15T01:26:10.583Z,76.15
2018-12-15T01:28:38.588Z,76.62
2018-12-15T01:31:06.623Z,76.11
2018-12-15T01:33:34.578Z,76.75
2018-12-15T01:36:02.576Z,76.60
2018-12-15T01:38:30.525Z,76.30
2018-12-15T01:40:58.970Z,75.47
2018-12-15T01:43:26.904Z,75.38
2018-12-15T01:45:54.964Z,75.77
2018-12-15T01:48:23.004Z,75.99
2018-12-15T01:50:50.917Z,75.77
2018-12-15T01:53:18.974Z,75.75
2018-12-15T01:55:47.744Z,74.96
2018-12-15T01:58:16.756Z,75.41
2018-12-15T02:00:44.919Z,75.84
2018-12-15T02:03:12.954Z,76.06
2018-12-15T02:05:40.939Z,75.60
2018-12-15T02:08:09.039Z,76.12
2018-12-15T02:10:36.999Z,75.77
2018-12-15T02:13:04.964Z,75.58
2018-12-15T02:15:32.924Z,75.58
2018-12-15T02:18:00.954Z,75.81
2018-12-15T02:20:28.927Z,75.91
2018-12-15T02:22:56.938Z,75.48
2018-12-15T02:25:24.953Z,75.75
2018-12-15T02:27:53.023Z,75.39
2018-12-15T02:30:21.090Z,75.39
2018-12-15T02:32:49.079Z,75.38
2018-12-15T02:35:17.024Z,75.53
2018-12-15T02:37:45.066Z,75.27
2018-12-15T02:40:13.019Z,75.51
2018-12-15T02:42:41.054Z,75.30
2018-12-15T02:45:09.022Z,74.62
2018-12-15T02:47:41.564Z,75.25
2018-12-15T02:50:07.119Z,74.99
2018-12-15T02:52:35.246Z,74.51
2018-12-15T02:55:03.239Z,73.93
2018-12-15T02:57:31.224Z,72.56
2018-12-15T02:59:59.275Z,72.61
2018-12-15T03:02:27.313Z,70.62
2018-12-15T03:04:55.299Z,68.81
2018-12-15T03:07:23.311Z,67.54
2018-12-15T03:09:51.334Z,65.54
2018-12-15T03:12:19.334Z,65.19
2018-12-15T03:14:47.317Z,66.08
2018-12-15T03:17:15.350Z,65.25
2018-12-15T03:19:43.384Z,65.04
2018-12-15T03:22:11.379Z,64.98
2018-12-15T03:24:39.355Z,65.91
2018-12-15T03:27:07.273Z,64.32
2018-12-15T03:29:35.284Z,65.15
2018-12-15T03:32:03.182Z,64.51
2018-12-15T03:34:31.157Z,64.31
2018-12-15T03:36:59.108Z,64.03
2018-12-15T03:39:27.134Z,64.92
2018-12-15T03:41:55.093Z,65.80
2018-12-15T03:44:23.120Z,64.86
2018-12-15T03:46:51.070Z,63.97
2018-12-15T03:49:19.014Z,65.11
2018-12-15T03:51:46.984Z,63.67
2018-12-15T03:54:14.939Z,64.67
2018-12-15T03:56:42.850Z,64.90
2018-12-15T03:59:10.862Z,64.83
2018-12-15T04:01:38.803Z,65.08
2018-12-15T04:04:06.725Z,65.47
2018-12-15T04:06:34.672Z,64.05
2018-12-15T04:09:02.799Z,65.48
2018-12-15T04:11:30.774Z,64.59
2018-12-15T04:13:58.757Z,64.92
2018-12-15T04:16:26.669Z,66.10
2018-12-15T04:18:54.626Z,66.08
2018-12-15T04:21:22.672Z,65.59
2018-12-15T04:23:50.619Z,65.62
2018-12-15T04:26:18.545Z,65.54
2018-12-15T04:28:46.469Z,64.42
2018-12-15T04:31:14.449Z,65.41
2018-12-15T04:33:42.445Z,66.26
2018-12-15T04:36:17.234Z,65.48
2018-12-15T04:38:45.221Z,64.59
2018-12-15T04:41:13.196Z,66.10
2018-12-15T04:43:41.138Z,64.78
2018-12-15T04:46:10.706Z,65.16
2018-12-15T04:48:38.656Z,66.05
2018-12-15T04:51:06.619Z,65.05
2018-12-15T04:53:34.556Z,64.73
2018-12-15T04:56:02.529Z,64.92
2018-12-15T04:58:30.810Z,64.29
2018-12-15T05:00:58.981Z,65.82
2018-12-15T05:03:26.875Z,65.74
2018-12-15T05:05:54.869Z,65.45
2018-12-15T05:08:22.784Z,66.69
2018-12-15T05:10:50.770Z,66.23
2018-12-15T05:13:18.690Z,65.74
2018-12-15T05:15:46.655Z,66.32
2018-12-15T05:18:18.202Z,65.92
2018-12-15T05:20:44.611Z,66.16
2018-12-15T05:23:12.544Z,65.51
2018-12-15T05:25:40.500Z,65.38
2018-12-15T05:28:08.461Z,66.12
2018-12-15T05:30:36.459Z,65.97
2018-12-15T05:33:04.364Z,66.21
2018-12-15T05:35:32.290Z,66.50
2018-12-15T05:38:00.174Z,66.38
2018-12-15T05:40:28.189Z,66.82
2018-12-15T05:42:56.155Z,66.43
2018-12-15T05:45:24.109Z,67.32
2018-12-15T05:47:52.071Z,66.18
2018-12-15T05:50:20.095Z,66.31
2018-12-15T05:52:47.975Z,66.50
2018-12-15T05:55:15.945Z,65.63
2018-12-15T05:57:43.856Z,65.21
2018-12-15T06:00:11.965Z,66.05
2018-12-15T06:02:40.130Z,66.60
2018-12-15T06:05:08.804Z,66.94
2018-12-15T06:07:36.710Z,66.91
2018-12-15T06:10:04.975Z,67.01
2018-12-15T06:12:32.930Z,67.62
2018-12-15T06:15:00.890Z,66.66
2018-12-15T06:17:28.872Z,67.69
2018-12-15T06:19:56.820Z,67.39
2018-12-15T06:22:24.795Z,66.76
2018-12-15T06:24:52.735Z,68.55
2018-12-15T06:27:20.702Z,68.21
2018-12-15T06:29:48.715Z,68.21
2018-12-15T06:32:16.775Z,69.50
2018-12-15T06:34:44.710Z,68.17
2018-12-15T06:37:12.682Z,68.55
2018-12-15T06:39:40.590Z,68.06
2018-12-15T06:42:08.586Z,68.59
2018-12-15T06:44:36.475Z,68.35
2018-12-15T06:47:04.484Z,67.16
2018-12-15T06:49:32.675Z,68.60
2018-12-15T06:52:00.654Z,67.18
2018-12-15T06:54:28.545Z,68.03
2018-12-15T06:56:56.535Z,68.30
2018-12-15T06:59:24.475Z,67.95
2018-12-15T07:01:52.455Z,68.15
2018-12-15T07:04:20.360Z,68.35
2018-12-15T07:06:48.370Z,67.90
2018-12-15T07:09:16.320Z,68.55
2018-12-15T07:11:44.309Z,68.79
2018-12-15T07:14:12.280Z,68.02
2018-12-15T07:16:40.220Z,68.27
2018-12-15T07:19:08.114Z,68.47
2018-12-15T07:21:36.049Z,67.93
2018-12-15T07:24:03.954Z,67.61
2018-12-15T07:26:32.059Z,68.83
2018-12-15T07:28:59.966Z,69.37
2018-12-15T07:31:27.925Z,68.48
2018-12-15T07:33:55.799Z,67.68
2018-12-15T07:36:23.774Z,67.39
2018-12-15T07:38:51.734Z,65.41
2018-12-15T07:41:19.779Z,64.35
2018-12-15T07:43:47.709Z,64.67
2018-12-15T07:46:18.959Z,64.13
2018-12-15T07:48:51.273Z,64.85
2018-12-15T07:51:16.929Z,64.90
2018-12-15T07:53:44.919Z,63.95
2018-12-15T07:56:12.929Z,64.19
2018-12-15T07:58:40.944Z,64.24
2018-12-15T08:01:11.881Z,62.98
2018-12-15T08:03:39.859Z,63.21
2018-12-15T08:06:07.799Z,63.44
2018-12-15T08:08:35.789Z,64.21
2018-12-15T08:11:09.399Z,63.19
2018-12-15T08:13:39.420Z,63.51
2018-12-15T08:16:07.332Z,63.98
2018-12-15T08:18:35.340Z,65.08
2018-12-15T08:21:03.325Z,64.60
2018-12-15T08:23:31.369Z,63.79
2018-12-15T08:25:59.519Z,64.35
2018-12-15T08:28:27.554Z,63.58
2018-12-15T08:30:55.489Z,64.11
2018-12-15T08:33:23.520Z,64.97
2018-12-15T08:35:51.474Z,64.35
2018-12-15T08:38:20.424Z,63.83
2018-12-15T08:40:48.454Z,63.42
2018-12-15T08:43:16.389Z,64.55
2018-12-15T08:45:44.419Z,64.59
2018-12-15T08:48:12.384Z,63.71
2018-12-15T08:50:40.483Z,63.85
2018-12-15T08:53:08.489Z,63.89
2018-12-15T08:55:36.444Z,63.54
2018-12-15T08:58:05.361Z,63.37
2018-12-15T09:00:33.329Z,63.51
2018-12-15T09:03:01.339Z,62.53
2018-12-15T09:05:29.211Z,63.36
2018-12-15T09:07:57.195Z,63.22
2018-12-15T09:10:25.149Z,63.24
2018-12-15T09:12:53.153Z,62.94
2018-12-15T09:15:21.129Z,63.12
2018-12-15T09:17:49.093Z,63.31
2018-12-15T09:20:17.063Z,63.63
2018-12-15T09:22:50.515Z,63.38
2018-12-15T09:25:18.469Z,63.54
2018-12-15T09:27:46.424Z,62.87
2018-12-15T09:30:14.473Z,62.81
2018-12-15T09:32:42.463Z,63.71
2018-12-15T09:35:10.722Z,63.21
2018-12-15T09:37:38.648Z,62.79
2018-12-15T09:40:06.803Z,63.84
2018-12-15T09:42:34.777Z,63.78
2018-12-15T09:45:02.840Z,64.45
2018-12-15T09:47:30.771Z,63.29
2018-12-15T09:49:59.904Z,63.00
2018-12-15T09:52:28.023Z,63.62
2018-12-15T09:54:56.133Z,62.96
2018-12-15T09:57:24.073Z,62.11
2018-12-15T09:59:52.447Z,62.42
2018-12-15T10:02:20.474Z,62.74
2018-12-15T10:04:48.508Z,62.00
2018-12-15T10:07:16.545Z,62.28
2018-12-15T10:09:44.503Z,63.59
2018-12-15T10:12:12.426Z,63.51
2018-12-15T10:14:40.411Z,63.22
2018-12-15T10:17:08.988Z,62.86
2018-12-15T10:19:37.107Z,62.66
2018-12-15T10:22:05.042Z,63.07
2018-12-15T10:24:33.017Z,63.27
2018-12-15T10:27:01.031Z,63.02
2018-12-15T10:29:34.527Z,61.50
2018-12-15T10:32:08.052Z,61.80
2018-12-15T10:34:36.062Z,62.63
2018-12-15T10:37:04.483Z,62.03
2018-12-15T10:39:32.632Z,62.67
2018-12-15T10:42:00.612Z,62.49
2018-12-15T10:44:28.596Z,62.96
2018-12-15T10:46:56.498Z,62.45
2018-12-15T10:49:30.546Z,63.07
2018-12-15T10:51:54.612Z,61.58
2018-12-15T10:54:22.543Z,63.41
2018-12-15T10:56:50.572Z,62.95
2018-12-15T10:59:18.547Z,62.91
2018-12-15T11:01:46.524Z,62.92
2018-12-15T11:04:14.452Z,62.32
2018-12-15T11:06:42.577Z,61.90
2018-12-15T11:09:10.637Z,61.07
2018-12-15T11:11:38.612Z,61.19
2018-12-15T11:14:06.570Z,60.61
2018-12-15T11:16:34.713Z,60.93
2018-12-15T11:19:02.652Z,61.44
2018-12-15T11:21:30.852Z,62.38
2018-12-15T11:23:58.753Z,61.43
2018-12-15T11:26:26.772Z,61.37
2018-12-15T11:28:58.442Z,60.83
2018-12-15T11:31:26.393Z,61.30
2018-12-15T11:33:54.330Z,60.25
2018-12-15T11:36:22.294Z,60.95
2018-12-15T11:38:50.247Z,61.29
2018-12-15T11:41:18.312Z,60.72
2018-12-15T11:43:46.228Z,60.25
2018-12-15T11:46:14.218Z,60.66
2018-12-15T11:48:42.223Z,61.06
2018-12-15T11:51:10.263Z,60.44
2018-12-15T11:53:38.248Z,59.92
2018-12-15T11:56:06.334Z,60.70
2018-12-15T11:58:34.333Z,59.84
2018-12-15T12:01:02.509Z,59.80
2018-12-15T12:03:30.480Z,59.18
2018-12-15T12:05:58.532Z,59.81
2018-12-15T12:08:26.563Z,60.32
2018-12-15T12:10:54.540Z,59.62
2018-12-15T12:13:22.673Z,59.46
2018-12-15T12:15:51.015Z,59.60
2018-12-15T12:18:19.056Z,60.34
2018-12-15T12:20:47.023Z,59.75
2018-12-15T12:23:15.028Z,60.07
2018-12-15T12:25:44.125Z,60.35
2018-12-15T12:28:12.137Z,60.38
2018-12-15T12:30:40.132Z,59.58
2018-12-15T12:33:08.243Z,59.04
2018-12-15T12:35:36.348Z,60.22
2018-12-15T12:38:04.467Z,59.09
2018-12-15T12:40:32.557Z,58.69
2018-12-15T12:43:00.593Z,60.17
2018-12-15T12:45:28.534Z,60.56
2018-12-15T12:47:56.495Z,59.81
2018-12-15T12:50:24.563Z,60.33
2018-12-15T12:52:52.580Z,59.83
2018-12-15T12:55:20.573Z,59.68
2018-12-15T12:57:48.573Z,60.43
2018-12-15T13:00:16.638Z,60.54
2018-12-15T13:02:45.054Z,60.12
2018-12-15T13:05:13.435Z,60.23
2018-12-15T13:07:41.563Z,59.78
2018-12-15T13:10:09.747Z,59.95
2018-12-15T13:12:37.818Z,59.40
2018-12-15T13:15:06.161Z,60.23
2018-12-15T13:17:34.138Z,60.23
2018-12-15T13:20:03.834Z,61.04
2018-12-15T13:22:32.028Z,61.32
2018-12-15T13:24:59.957Z,60.54
2018-12-15T13:27:28.273Z,60.31
2018-12-15T13:29:56.973Z,60.21
2018-12-15T13:32:26.258Z,60.10
2018-12-15T13:34:54.238Z,59.53
2018-12-15T13:37:23.304Z,60.56
2018-12-15T13:39:51.413Z,61.67
2018-12-15T13:42:19.568Z,59.99
2018-12-15T13:44:47.566Z,61.37
2018-12-15T13:47:19.478Z,60.61
2018-12-15T13:49:47.638Z,61.14
2018-12-15T13:52:15.828Z,61.17
2018-12-15T13:54:43.836Z,60.83
2018-12-15T13:57:11.903Z,62.29
2018-12-15T13:59:39.869Z,62.05
2018-12-15T14:02:07.819Z,61.22
2018-12-15T14:04:36.063Z,60.88
2018-12-15T14:07:06.155Z,61.06
2018-12-15T14:09:34.197Z,61.20
2018-12-15T14:12:02.269Z,61.54
2018-12-15T14:14:30.273Z,60.62
2018-12-15T14:16:58.322Z,62.23
2018-12-15T14:19:27.327Z,61.53
2018-12-15T14:21:56.067Z,60.93
2018-12-15T14:24:24.284Z,62.14
2018-12-15T14:26:53.587Z,61.80
2018-12-15T14:29:21.677Z,61.81
2018-12-15T14:31:50.478Z,61.40
2018-12-15T14:34:20.457Z,61.10
2018-12-15T14:36:50.807Z,62.10
2018-12-15T14:39:20.412Z,62.10
2018-12-15T14:41:48.532Z,61.23
2018-12-15T14:44:16.622Z,61.23
2018-12-15T14:46:44.667Z,62.70
2018-12-15T14:49:12.869Z,61.33
2018-12-15T14:51:41.007Z,62.02
2018-12-15T14:54:09.277Z,62.28
2018-12-15T14:56:38.686Z,62.20
2018-12-15T14:59:08.968Z,62.86
2018-12-15T15:01:37.158Z,62.30
2018-12-15T15:04:05.402Z,62.98
2018-12-15T15:06:33.467Z,62.90
2018-12-15T15:09:01.672Z,62.70
2018-12-15T15:11:30.427Z,62.88
2018-12-15T15:13:59.552Z,64.16
2018-12-15T15:16:27.667Z,64.00
2018-12-15T15:18:56.024Z,63.87
2018-12-15T15:21:24.144Z,63.86
2018-12-15T15:23:52.487Z,63.85
2018-12-15T15:26:20.758Z,64.15
2018-12-15T15:28:49.822Z,63.63
2018-12-15T15:31:18.232Z,63.96
2018-12-15T15:33:50.647Z,62.99
2018-12-15T15:36:19.000Z,63.74
2018-12-15T15:38:49.402Z,64.85
2018-12-15T15:41:18.883Z,65.24
2018-12-15T15:43:48.397Z,64.81
2018-12-15T15:46:16.853Z,64.85
2018-12-15T15:48:49.282Z,65.41
2018-12-15T15:51:17.636Z,65.22
2018-12-15T15:53:51.243Z,65.13
2018-12-15T15:56:19.667Z,65.09
2018-12-15T15:58:51.907Z,65.15
2018-12-15T16:01:21.622Z,65.02
2018-12-15T16:03:49.913Z,65.26
2018-12-15T16:06:18.651Z,65.38
2018-12-15T16:08:48.053Z,65.03
2018-12-15T16:11:16.500Z,65.83
2018-12-15T16:13:48.538Z,65.58
2018-12-15T16:16:27.747Z,64.84
2018-12-15T16:18:59.794Z,65.09
2018-12-15T16:21:28.212Z,64.88
2018-12-15T16:23:56.610Z,65.75
2018-12-15T16:26:25.112Z,66.08
2018-12-15T16:28:55.493Z,66.15
2018-12-15T16:31:27.662Z,65.20
2018-12-15T16:33:59.997Z,65.43
2018-12-15T16:36:28.552Z,65.93
2018-12-15T16:38:58.813Z,65.91
2018-12-15T16:41:31.118Z,65.74
2018-12-15T16:44:00.602Z,66.36
2018-12-15T16:46:29.122Z,65.78
2018-12-15T16:48:57.382Z,65.91
2018-12-15T16:51:25.867Z,66.29
2018-12-15T16:53:54.303Z,66.58
2018-12-15T16:56:22.807Z,66.67
2018-12-15T16:58:53.298Z,67.34
2018-12-15T17:01:24.870Z,67.30
2018-12-15T17:03:54.325Z,67.35
2018-12-15T17:06:22.893Z,67.65
2018-12-15T17:08:51.412Z,66.78
2018-12-15T17:11:21.862Z,66.86
2018-12-15T17:13:50.943Z,68.06
2018-12-15T17:16:21.644Z,68.00
2018-12-15T17:18:50.050Z,68.32
2018-12-15T17:21:18.537Z,67.99
2018-12-15T17:23:52.447Z,67.83
2018-12-15T17:26:21.028Z,67.75
2018-12-15T17:28:49.812Z,67.34
2018-12-15T17:31:18.377Z,67.72
2018-12-15T17:33:51.362Z,67.37
2018-12-15T17:36:21.140Z,67.04
2018-12-15T17:38:49.562Z,67.15
2018-12-15T17:41:18.307Z,67.08
2018-12-15T17:43:50.808Z,66.58
2018-12-15T17:46:22.298Z,66.74
2018-12-15T17:48:50.638Z,68.09
2018-12-15T17:51:18.997Z,67.29
2018-12-15T17:53:50.687Z,67.21
2018-12-15T17:56:19.147Z,68.42
2018-12-15T17:58:47.437Z,68.25
2018-12-15T18:01:15.793Z,68.16
2018-12-15T18:03:44.137Z,67.85
2018-12-15T18:06:12.569Z,67.87
2018-12-15T18:08:44.253Z,68.46
2018-12-15T18:11:12.737Z,67.92
2018-12-15T18:13:41.136Z,67.52
2018-12-15T18:16:09.398Z,68.73
2018-12-15T18:18:38.008Z,67.33
2018-12-15T18:21:09.714Z,67.53
2018-12-15T18:23:38.409Z,67.32
2018-12-15T18:26:08.052Z,67.18
2018-12-15T18:28:39.703Z,67.93
2018-12-15T18:31:09.217Z,68.54
2018-12-15T18:33:37.878Z,67.79
2018-12-15T18:36:06.518Z,67.44
2018-12-15T18:38:35.152Z,67.62
2018-12-15T18:41:03.692Z,68.21
2018-12-15T18:43:32.332Z,68.17
2018-12-15T18:46:00.863Z,68.47
2018-12-15T18:48:29.610Z,68.44
2018-12-15T18:50:58.217Z,68.28
2018-12-15T18:53:26.951Z,68.23
2018-12-15T18:55:56.370Z,67.52
2018-12-15T18:58:28.022Z,68.12
2018-12-15T19:00:56.557Z,68.76
2018-12-15T19:03:26.025Z,68.36
2018-12-15T19:05:54.637Z,68.18
2018-12-15T19:08:28.453Z,68.50
2018-12-15T19:10:57.179Z,69.23
2018-12-15T19:13:29.019Z,69.01
2018-12-15T19:15:59.605Z,68.97
2018-12-15T19:18:39.940Z,68.95
2018-12-15T19:21:09.021Z,69.02
2018-12-15T19:23:38.013Z,69.00
2018-12-15T19:26:06.705Z,68.99
2018-12-15T19:28:35.548Z,69.47
2018-12-15T19:31:04.178Z,70.11
2018-12-15T19:33:32.854Z,69.23
2018-12-15T19:36:01.366Z,69.35
2018-12-15T19:41:43.845Z,69.42
2018-12-15T19:44:14.445Z,68.48
2018-12-15T19:46:47.926Z,69.15
2018-12-15T19:49:19.006Z,69.40
2018-12-15T19:51:54.828Z,68.78
2018-12-15T19:54:30.845Z,69.38
2018-12-15T19:57:11.029Z,68.24
2018-12-15T19:59:50.697Z,69.95
2018-12-15T20:05:37.231Z,69.14
2018-12-15T20:08:13.210Z,69.29
2018-12-15T20:10:50.341Z,68.72
2018-12-15T20:13:38.177Z,68.61
2018-12-15T20:30:17.290Z,68.56
2018-12-15T20:35:49.819Z,68.52
2018-12-15T20:56:04.117Z,68.05
2018-12-15T20:58:33.878Z,69.22
2018-12-15T21:15:24.379Z,70.03
2018-12-15T21:31:56.504Z,69.02
2018-12-15T21:50:43.318Z,69.33
2018-12-15T21:53:17.298Z,69.33
2018-12-15T21:56:11.930Z,70.29
2018-12-15T21:58:42.898Z,69.89
2018-12-15T22:01:20.518Z,70.08
2018-12-15T22:07:13.338Z,69.60
2018-12-15T22:09:41.998Z,70.40
2018-12-15T22:12:13.918Z,70.71
2018-12-15T22:14:54.218Z,69.60
2018-12-15T22:17:31.433Z,69.83
2018-12-15T22:20:01.698Z,70.31
2018-12-15T22:22:39.257Z,70.56
2018-12-15T22:25:21.682Z,69.86
2018-12-15T22:28:00.177Z,69.01
2018-12-15T22:30:29.541Z,69.83
2018-12-15T22:33:10.639Z,70.05
2018-12-15T22:35:44.756Z,69.91
2018-12-15T22:38:24.862Z,69.66
2018-12-15T22:41:13.496Z,70.17
2018-12-15T22:43:49.891Z,69.56
2018-12-15T22:46:23.476Z,70.04
2018-12-15T22:48:54.394Z,69.92
2018-12-15T22:51:23.176Z,70.33
2018-12-15T22:54:02.707Z,70.36
2018-12-15T22:56:40.489Z,69.87
2018-12-15T22:59:14.741Z,70.60
2018-12-15T23:01:53.317Z,70.36
2018-12-15T23:04:46.250Z,69.47
2018-12-15T23:07:23.811Z,70.88
2018-12-15T23:09:58.371Z,69.77
2018-12-15T23:12:46.410Z,69.74
2018-12-15T23:18:10.011Z,69.97
2018-12-15T23:20:54.017Z,69.55
2018-12-15T23:23:35.245Z,70.39
2018-12-15T23:26:20.564Z,70.20
2018-12-15T23:28:51.966Z,69.54
2018-12-15T23:31:26.511Z,70.44
2018-12-15T23:34:09.301Z,69.87
2018-12-15T23:36:45.559Z,70.21
2018-12-15T23:39:15.732Z,71.11
2018-12-15T23:41:45.200Z,71.11
2018-12-15T23:44:14.614Z,70.08
2018-12-15T23:47:07.291Z,69.93
2018-12-15T23:49:44.256Z,70.17
2018-12-15T23:52:23.219Z,70.81
2018-12-15T23:55:09.281Z,70.28
2018-12-15T23:58:00.211Z,70.61
